createdAt,value
2023-01-06T00:01:39.703Z,100.00
2023-01-06T00:04:12.694Z,100.00
2023-01-06T00:07:05.058Z,100.00
2023-01-06T00:09:38.833Z,100.00
2023-01-06T00:12:11.628Z,100.00
2023-01-06T00:14:44.431Z,100.00
2023-01-06T00:17:16.720Z,100.00
2023-01-06T00:19:49.469Z,100.00
2023-01-06T00:22:22.636Z,100.00
2023-01-06T00:24:55.214Z,100.00
2023-01-06T00:27:27.614Z,100.00
2023-01-06T00:30:00.366Z,100.00
2023-01-06T00:32:33.048Z,100.00
2023-01-06T00:35:07.138Z,100.00
2023-01-06T00:37:39.965Z,100.00
2023-01-06T00:40:13.054Z,100.00
2023-01-06T00:42:46.323Z,100.00
2023-01-06T00:45:18.698Z,100.00
2023-01-06T00:47:52.362Z,100.00
2023-01-06T00:50:24.970Z,100.00
2023-01-06T00:52:57.514Z,100.00
2023-01-06T00:55:30.155Z,100.00
2023-01-06T00:58:02.705Z,100.00
2023-01-06T01:00:35.766Z,100.00
2023-01-06T01:03:08.331Z,100.00
2023-01-06T01:05:41.224Z,100.00
2023-01-06T01:08:14.113Z,100.00
2023-01-06T01:10:46.815Z,100.00
2023-01-06T01:13:20.394Z,100.00
2023-01-06T01:15:53.315Z,100.00
2023-01-06T01:18:25.949Z,100.00
2023-01-06T01:20:58.430Z,100.00
2023-01-06T01:23:31.422Z,100.00
2023-01-06T01:26:05.113Z,100.00
2023-01-06T01:28:40.372Z,100.00
2023-01-06T01:31:13.541Z,100.00
2023-01-06T01:33:46.845Z,100.00
2023-01-06T01:36:20.081Z,100.00
2023-01-06T01:38:53.070Z,100.00
2023-01-06T01:41:25.934Z,100.00
2023-01-06T01:44:03.022Z,100.00
2023-01-06T01:46:42.946Z,100.00
2023-01-06T01:49:27.462Z,100.00
2023-01-06T01:51:59.817Z,100.00
2023-01-06T01:54:33.719Z,100.00
2023-01-06T01:57:14.048Z,100.00
2023-01-06T01:59:46.674Z,100.00
2023-01-06T02:02:19.398Z,100.00
2023-01-06T02:04:55.315Z,100.00
2023-01-06T02:07:28.279Z,100.00
2023-01-06T02:10:15.250Z,100.00
2023-01-06T02:12:51.627Z,100.00
2023-01-06T02:15:34.189Z,100.00
2023-01-06T02:18:32.330Z,100.00
2023-01-06T02:21:10.141Z,100.00
2023-01-06T02:23:59.513Z,100.00
2023-01-06T02:26:55.977Z,100.00
2023-01-06T02:29:51.784Z,100.00
2023-01-06T02:32:54.242Z,100.00
2023-01-06T02:35:52.117Z,100.00
2023-01-06T02:38:42.205Z,100.00
2023-01-06T02:41:40.666Z,100.00
2023-01-06T02:44:33.162Z,100.00
2023-01-06T02:47:20.901Z,100.00
2023-01-06T02:50:13.484Z,100.00
2023-01-06T02:52:50.330Z,100.00
2023-01-06T02:55:39.726Z,100.00
2023-01-06T02:58:47.313Z,100.00
2023-01-06T03:01:36.924Z,100.00
2023-01-06T03:04:20.362Z,100.00
2023-01-06T03:06:53.545Z,100.00
2023-01-06T03:09:34.686Z,100.00
2023-01-06T03:12:17.578Z,100.00
2023-01-06T03:14:52.064Z,100.00
2023-01-06T03:17:25.576Z,100.00
2023-01-06T03:19:58.070Z,100.00
2023-01-06T03:22:30.713Z,100.00
2023-01-06T03:25:03.622Z,100.00
2023-01-06T03:27:36.973Z,100.00
2023-01-06T03:30:11.907Z,100.00
2023-01-06T03:33:08.643Z,100.00
2023-01-06T03:35:58.950Z,100.00
2023-01-06T03:39:23.970Z,100.00
2023-01-06T03:42:35.273Z,100.00
2023-01-06T03:45:18.458Z,100.00
2023-01-06T03:48:01.137Z,100.00
2023-01-06T03:50:39.176Z,100.00
2023-01-06T03:53:40.309Z,100.00
2023-01-06T03:56:37.673Z,100.00
2023-01-06T03:59:17.992Z,100.00
2023-01-06T04:01:52.092Z,100.00
2023-01-06T04:04:38.213Z,100.00
2023-01-06T04:07:10.552Z,100.00
2023-01-06T04:09:45.825Z,100.00
2023-01-06T04:12:36.541Z,100.00
2023-01-06T04:15:21.612Z,100.00
2023-01-06T04:17:54.379Z,100.00
2023-01-06T04:20:30.238Z,100.00
2023-01-06T04:23:04.377Z,100.00
2023-01-06T04:25:46.354Z,100.00
2023-01-06T04:28:26.568Z,100.00
2023-01-06T04:31:02.685Z,100.00
2023-01-06T04:33:37.396Z,100.00
2023-01-06T04:36:11.027Z,100.00
2023-01-06T04:38:45.795Z,100.00
2023-01-06T04:41:18.504Z,100.00
2023-01-06T04:43:51.522Z,100.00
2023-01-06T04:46:25.180Z,100.00
2023-01-06T04:48:57.529Z,100.00
2023-01-06T04:51:30.542Z,100.00
2023-01-06T04:54:03.095Z,100.00
2023-01-06T04:56:35.666Z,100.00
2023-01-06T04:59:09.753Z,100.00
2023-01-06T05:01:42.348Z,100.00
2023-01-06T05:04:15.004Z,100.00
2023-01-06T05:06:47.640Z,100.00
2023-01-06T05:09:20.839Z,100.00
2023-01-06T05:11:53.736Z,100.00
2023-01-06T05:14:27.518Z,100.00
2023-01-06T05:17:00.342Z,100.00
2023-01-06T05:19:32.985Z,100.00
2023-01-06T05:22:05.499Z,100.00
2023-01-06T05:24:38.195Z,100.00
2023-01-06T05:27:10.871Z,100.00
2023-01-06T05:29:43.497Z,100.00
2023-01-06T05:32:16.144Z,100.00
2023-01-06T05:34:48.660Z,100.00
2023-01-06T05:37:21.016Z,100.00
2023-01-06T05:39:53.454Z,100.00
2023-01-06T05:42:25.885Z,100.00
2023-01-06T05:44:59.331Z,100.00
2023-01-06T05:47:32.065Z,100.00
2023-01-06T05:50:05.332Z,100.00
2023-01-06T05:52:37.786Z,100.00
2023-01-06T05:55:11.063Z,100.00
2023-01-06T05:57:43.864Z,100.00
2023-01-06T06:00:18.217Z,100.00
2023-01-06T06:02:50.838Z,100.00
2023-01-06T06:05:24.034Z,100.00
2023-01-06T06:07:59.406Z,100.00
2023-01-06T06:10:32.506Z,100.00
2023-01-06T06:13:05.753Z,100.00
2023-01-06T06:15:38.473Z,100.00
2023-01-06T06:18:11.172Z,100.00
2023-01-06T06:20:44.608Z,100.00
2023-01-06T06:23:19.529Z,100.00
2023-01-06T06:25:53.141Z,100.00
2023-01-06T06:28:25.945Z,100.00
2023-01-06T06:31:06.958Z,100.00
2023-01-06T06:33:40.397Z,100.00
2023-01-06T06:36:15.515Z,100.00
2023-01-06T06:38:48.480Z,100.00
2023-01-06T06:41:21.553Z,100.00
2023-01-06T06:43:54.073Z,100.00
2023-01-06T06:46:26.606Z,100.00
2023-01-06T06:49:00.014Z,100.00
2023-01-06T06:51:32.820Z,100.00
2023-01-06T06:54:06.019Z,100.00
2023-01-06T06:56:39.254Z,100.00
2023-01-06T06:59:11.883Z,100.00
2023-01-06T07:01:44.553Z,100.00
2023-01-06T07:04:18.278Z,100.00
2023-01-06T07:06:50.857Z,100.00
2023-01-06T07:09:23.376Z,100.00
2023-01-06T07:11:55.873Z,100.00
2023-01-06T07:14:28.426Z,100.00
2023-01-06T07:17:03.801Z,100.00
2023-01-06T07:19:37.010Z,100.00
2023-01-06T07:22:09.422Z,100.00
2023-01-06T07:24:42.033Z,100.00
2023-01-06T07:27:14.619Z,100.00
2023-01-06T07:29:47.310Z,100.00
2023-01-06T07:32:19.725Z,100.00
2023-01-06T07:34:52.825Z,100.00
2023-01-06T07:37:25.480Z,100.00
2023-01-06T07:39:58.029Z,100.00
2023-01-06T07:42:31.778Z,100.00
2023-01-06T07:45:05.713Z,100.00
2023-01-06T07:47:38.320Z,100.00
2023-01-06T07:50:10.816Z,100.00
2023-01-06T07:52:43.167Z,100.00
2023-01-06T07:55:15.868Z,100.00
2023-01-06T07:57:48.681Z,100.00
2023-01-06T08:00:21.657Z,100.00
2023-01-06T08:02:54.546Z,100.00
2023-01-06T08:05:27.431Z,100.00
2023-01-06T08:08:00.080Z,100.00
2023-01-06T08:10:33.162Z,100.00
2023-01-06T08:13:05.699Z,100.00
2023-01-06T08:15:39.221Z,100.00
2023-01-06T08:18:11.889Z,100.00
2023-01-06T08:20:44.319Z,100.00
2023-01-06T08:23:16.857Z,100.00
2023-01-06T08:25:50.459Z,100.00
2023-01-06T08:28:33.516Z,100.00
2023-01-06T08:31:07.984Z,100.00
2023-01-06T08:33:41.040Z,100.00
2023-01-06T08:36:19.626Z,100.00
2023-01-06T08:38:52.675Z,100.00
2023-01-06T08:41:25.233Z,99.92
2023-01-06T08:43:57.940Z,99.90
2023-01-06T08:46:30.389Z,99.94
2023-01-06T08:49:03.336Z,100.00
2023-01-06T08:51:36.078Z,99.75
2023-01-06T08:54:08.577Z,100.00
2023-01-06T08:56:43.179Z,100.00
2023-01-06T08:59:17.671Z,100.00
2023-01-06T09:01:50.281Z,100.00
2023-01-06T09:04:24.204Z,100.00
2023-01-06T09:06:57.555Z,100.00
2023-01-06T09:09:30.216Z,100.00
2023-01-06T09:12:03.340Z,100.00
2023-01-06T09:14:36.704Z,100.00
2023-01-06T09:17:09.263Z,100.00
2023-01-06T09:19:42.146Z,100.00
2023-01-06T09:22:14.729Z,100.00
2023-01-06T09:24:47.817Z,100.00
2023-01-06T09:27:21.639Z,100.00
2023-01-06T09:29:54.530Z,100.00
2023-01-06T09:32:27.003Z,100.00
2023-01-06T09:34:59.487Z,100.00
2023-01-06T09:37:32.159Z,100.00
2023-01-06T09:40:05.859Z,100.00
2023-01-06T09:42:53.738Z,100.00
2023-01-06T09:45:57.761Z,100.00
2023-01-06T09:48:40.988Z,100.00
2023-01-06T09:51:18.080Z,100.00
2023-01-06T09:53:54.962Z,100.00
2023-01-06T09:56:27.743Z,100.00
2023-01-06T09:59:10.059Z,100.00
2023-01-06T10:01:47.078Z,100.00
2023-01-06T10:04:28.073Z,100.00
2023-01-06T10:07:13.659Z,99.55
2023-01-06T10:10:06.291Z,98.30
2023-01-06T10:13:09.163Z,98.16
2023-01-06T10:16:10.964Z,97.89
2023-01-06T10:18:54.240Z,96.32
2023-01-06T10:21:46.516Z,96.56
2023-01-06T10:24:52.010Z,96.94
2023-01-06T10:27:52.500Z,97.39
2023-01-06T10:30:45.088Z,96.72
2023-01-06T10:36:00.215Z,96.68
2023-01-06T10:38:40.596Z,96.59
2023-01-06T10:41:41.449Z,96.65
2023-01-06T10:44:14.087Z,96.87
2023-01-06T10:46:47.773Z,96.64
2023-01-06T10:49:22.440Z,95.73
2023-01-06T10:51:58.658Z,94.89
2023-01-06T10:54:35.083Z,94.21
2023-01-06T10:57:11.993Z,94.24
2023-01-06T11:00:18.626Z,94.02
2023-01-06T11:02:57.770Z,93.93
2023-01-06T11:05:31.162Z,93.60
2023-01-06T11:08:11.254Z,93.57
2023-01-06T11:10:54.224Z,93.32
2023-01-06T11:13:34.619Z,92.62
2023-01-06T11:16:11.226Z,92.72
2023-01-06T11:18:43.937Z,92.92
2023-01-06T11:21:19.610Z,92.58
2023-01-06T11:23:51.970Z,93.09
2023-01-06T11:26:24.544Z,99.48
2023-01-06T11:28:57.200Z,99.44
2023-01-06T11:31:30.372Z,97.86
2023-01-06T11:34:05.923Z,96.38
2023-01-06T11:36:38.412Z,95.28
2023-01-06T11:39:18.372Z,94.71
2023-01-06T11:41:52.432Z,94.51
2023-01-06T11:44:34.463Z,93.85
2023-01-06T11:47:17.879Z,93.34
2023-01-06T11:50:01.163Z,92.41
2023-01-06T11:52:35.416Z,92.08
2023-01-06T11:55:16.191Z,93.33
2023-01-06T11:57:53.802Z,93.20
2023-01-06T12:00:39.752Z,94.09
2023-01-06T12:03:36.044Z,93.96
2023-01-06T12:06:31.144Z,93.62
2023-01-06T12:09:14.904Z,93.10
2023-01-06T12:11:55.761Z,93.07
2023-01-06T12:14:35.588Z,93.15
2023-01-06T12:17:32.429Z,93.22
2023-01-06T12:20:13.704Z,93.83
2023-01-06T12:22:55.244Z,93.12
2023-01-06T12:25:34.954Z,92.50
2023-01-06T12:28:31.767Z,92.44
2023-01-06T12:31:33.243Z,92.71
2023-01-06T12:34:11.064Z,92.36
2023-01-06T12:37:33.685Z,92.23
2023-01-06T12:40:30.691Z,92.12
2023-01-06T12:43:23.686Z,91.46
2023-01-06T12:46:24.701Z,90.09
2023-01-06T12:49:21.051Z,90.79
2023-01-06T12:51:56.289Z,90.73
2023-01-06T12:54:33.594Z,91.25
2023-01-06T12:57:13.716Z,91.36
2023-01-06T13:00:16.791Z,91.38
2023-01-06T13:03:24.625Z,90.51
2023-01-06T13:06:13.634Z,90.53
2023-01-06T13:09:25.190Z,88.69
2023-01-06T13:12:23.383Z,88.84
2023-01-06T13:15:24.062Z,89.41
2023-01-06T13:18:34.405Z,90.24
2023-01-06T13:21:10.230Z,89.43
2023-01-06T13:23:50.618Z,89.97
2023-01-06T13:26:49.840Z,89.33
2023-01-06T13:29:39.319Z,88.37
2023-01-06T13:32:39.419Z,88.28
2023-01-06T13:35:25.640Z,87.15
2023-01-06T13:38:29.826Z,87.08
2023-01-06T13:41:03.911Z,86.97
2023-01-06T13:43:37.393Z,87.31
2023-01-06T13:46:12.620Z,87.23
2023-01-06T13:48:49.673Z,86.90
2023-01-06T13:51:44.529Z,87.22
2023-01-06T13:54:46.218Z,87.78
2023-01-06T13:57:32.277Z,87.42
2023-01-06T14:00:15.543Z,87.72
2023-01-06T14:02:55.895Z,88.58
2023-01-06T14:05:33.367Z,88.11
2023-01-06T14:08:09.969Z,88.58
2023-01-06T14:10:44.903Z,88.37
2023-01-06T14:13:24.952Z,87.51
2023-01-06T14:16:13.063Z,87.50
2023-01-06T14:18:53.566Z,87.43
2023-01-06T14:21:30.641Z,88.84
2023-01-06T14:24:10.687Z,88.95
2023-01-06T14:27:08.346Z,89.16
2023-01-06T14:29:47.427Z,88.39
2023-01-06T14:32:24.624Z,87.17
2023-01-06T14:35:06.603Z,86.73
2023-01-06T14:37:52.062Z,86.55
2023-01-06T14:40:30.964Z,87.04
2023-01-06T14:43:08.433Z,87.25
2023-01-06T14:45:41.286Z,87.16
2023-01-06T14:48:15.995Z,86.84
2023-01-06T14:50:51.081Z,86.64
2023-01-06T14:53:30.810Z,86.94
2023-01-06T14:56:03.460Z,86.75
2023-01-06T14:58:37.326Z,86.30
2023-01-06T15:01:22.374Z,85.43
2023-01-06T15:04:10.887Z,85.27
2023-01-06T15:06:43.686Z,85.05
2023-01-06T15:09:21.069Z,84.88
2023-01-06T15:11:53.584Z,83.92
2023-01-06T15:14:34.527Z,84.18
2023-01-06T15:17:07.517Z,83.79
2023-01-06T15:19:42.159Z,83.75
2023-01-06T15:22:20.838Z,84.01
2023-01-06T15:24:53.277Z,83.33
2023-01-06T15:27:26.755Z,84.42
2023-01-06T15:30:00.181Z,85.16
2023-01-06T15:32:33.095Z,84.32
2023-01-06T15:35:07.377Z,84.76
2023-01-06T15:37:39.198Z,84.65
2023-01-06T15:40:15.887Z,84.58
2023-01-06T15:42:48.727Z,84.37
2023-01-06T15:45:35.947Z,84.54
2023-01-06T15:48:15.349Z,84.46
2023-01-06T15:50:48.012Z,83.04
2023-01-06T15:53:25.599Z,82.73
2023-01-06T15:55:58.259Z,82.81
2023-01-06T15:58:39.074Z,83.22
2023-01-06T16:01:15.946Z,83.33
2023-01-06T16:03:54.011Z,82.44
2023-01-06T16:06:31.498Z,83.05
2023-01-06T16:09:27.089Z,83.21
2023-01-06T16:12:21.129Z,82.54
2023-01-06T16:14:53.909Z,81.96
2023-01-06T16:17:32.494Z,81.86
2023-01-06T16:20:08.165Z,81.75
2023-01-06T16:22:51.942Z,81.71
2023-01-06T16:25:28.526Z,80.85
2023-01-06T16:28:04.133Z,80.89
2023-01-06T16:30:38.282Z,81.17
2023-01-06T16:33:39.691Z,80.48
2023-01-06T16:36:14.806Z,81.20
2023-01-06T16:38:47.296Z,81.65
2023-01-06T16:41:21.161Z,81.26
2023-01-06T16:43:53.842Z,81.69
2023-01-06T16:46:27.997Z,81.79
2023-01-06T16:49:01.989Z,82.99
2023-01-06T16:51:34.412Z,82.93
2023-01-06T16:54:11.805Z,82.09
2023-01-06T16:56:45.062Z,82.04
2023-01-06T16:59:19.285Z,81.57
2023-01-06T17:01:51.043Z,82.03
2023-01-06T17:04:23.556Z,82.56
2023-01-06T17:06:57.345Z,82.78
2023-01-06T17:09:30.208Z,82.90
2023-01-06T17:12:02.927Z,82.21
2023-01-06T17:14:35.380Z,81.38
2023-01-06T17:17:13.486Z,80.79
2023-01-06T17:19:46.824Z,80.36
2023-01-06T17:22:31.070Z,81.15
2023-01-06T17:25:05.548Z,80.97
2023-01-06T17:27:38.594Z,80.97
2023-01-06T17:30:15.873Z,79.67
2023-01-06T17:32:48.868Z,79.74
2023-01-06T17:35:31.806Z,79.60
2023-01-06T17:38:10.906Z,79.82
2023-01-06T17:40:43.465Z,80.50
2023-01-06T17:43:29.087Z,80.86
2023-01-06T17:46:03.632Z,79.94
2023-01-06T17:48:36.091Z,79.10
2023-01-06T17:51:10.011Z,80.52
2023-01-06T17:54:00.040Z,79.90
2023-01-06T17:56:34.232Z,80.14
2023-01-06T17:59:18.795Z,80.11
2023-01-06T18:01:53.126Z,80.08
2023-01-06T18:04:26.890Z,79.63
2023-01-06T18:06:59.493Z,79.35
2023-01-06T18:09:32.149Z,79.43
2023-01-06T18:12:08.592Z,79.66
2023-01-06T18:14:43.226Z,80.53
2023-01-06T18:17:28.541Z,80.60
2023-01-06T18:20:01.450Z,79.88
2023-01-06T18:22:34.626Z,79.42
2023-01-06T18:25:08.632Z,79.98
2023-01-06T18:27:41.222Z,79.98
2023-01-06T18:30:37.439Z,79.61
2023-01-06T18:33:16.642Z,79.98
2023-01-06T18:35:50.558Z,79.61
2023-01-06T18:38:22.953Z,79.67
2023-01-06T18:40:56.215Z,80.33
2023-01-06T18:43:30.628Z,80.42
2023-01-06T18:46:03.656Z,80.62
2023-01-06T18:48:38.462Z,79.95
2023-01-06T18:51:17.771Z,79.14
2023-01-06T18:53:51.337Z,78.63
2023-01-06T18:56:27.393Z,78.74
2023-01-06T18:59:00.203Z,79.55
2023-01-06T19:01:49.368Z,79.55
2023-01-06T19:04:31.693Z,79.53
2023-01-06T19:07:21.979Z,79.20
2023-01-06T19:09:54.587Z,78.51
2023-01-06T19:12:32.825Z,78.51
2023-01-06T19:15:22.136Z,79.19
2023-01-06T19:17:55.657Z,79.15
2023-01-06T19:20:30.711Z,78.85
2023-01-06T19:23:06.440Z,78.11
2023-01-06T19:25:41.290Z,77.39
2023-01-06T19:28:30.664Z,76.68
2023-01-06T19:31:07.935Z,76.49
2023-01-06T19:34:00.039Z,77.02
2023-01-06T19:36:46.519Z,76.44
2023-01-06T19:39:35.950Z,76.92
2023-01-06T19:42:27.829Z,76.65
2023-01-06T19:45:02.434Z,75.68
2023-01-06T19:47:36.984Z,74.74
2023-01-06T19:50:23.313Z,74.91
2023-01-06T19:53:00.477Z,75.91
2023-01-06T19:55:33.426Z,76.53
2023-01-06T19:58:18.688Z,76.49
2023-01-06T20:00:52.873Z,75.86
2023-01-06T20:03:30.538Z,76.07
2023-01-06T20:06:03.468Z,77.13
2023-01-06T20:08:35.988Z,77.38
2023-01-06T20:11:09.468Z,77.82
2023-01-06T20:13:42.486Z,80.06
2023-01-06T20:16:17.018Z,80.84
2023-01-06T20:18:50.963Z,81.13
2023-01-06T20:21:24.077Z,82.35
2023-01-06T20:23:58.538Z,82.55
2023-01-06T20:26:30.997Z,81.51
2023-01-06T20:29:06.992Z,81.66
2023-01-06T20:31:40.252Z,82.21
2023-01-06T20:34:12.915Z,82.16
2023-01-06T20:36:45.915Z,82.01
2023-01-06T20:39:18.856Z,82.12
2023-01-06T20:41:51.498Z,82.08
2023-01-06T20:44:24.330Z,83.31
2023-01-06T20:46:56.855Z,82.64
2023-01-06T20:49:29.213Z,81.26
2023-01-06T20:52:02.001Z,80.89
2023-01-06T20:54:35.248Z,80.88
2023-01-06T20:57:08.451Z,81.20
2023-01-06T20:59:41.356Z,80.95
2023-01-06T21:02:14.658Z,81.42
2023-01-06T21:04:47.794Z,81.42
2023-01-06T21:07:20.822Z,80.69
2023-01-06T21:09:54.267Z,80.28
2023-01-06T21:12:27.309Z,80.28
2023-01-06T21:15:01.352Z,79.64
2023-01-06T21:17:34.623Z,79.52
2023-01-06T21:20:28.981Z,79.73
2023-01-06T21:23:02.236Z,81.04
2023-01-06T21:25:35.309Z,81.38
2023-01-06T21:28:07.711Z,81.08
2023-01-06T21:30:40.359Z,80.58
2023-01-06T21:33:13.606Z,80.48
2023-01-06T21:35:46.381Z,80.63
2023-01-06T21:38:19.736Z,80.68
2023-01-06T21:40:53.146Z,82.61
2023-01-06T21:43:25.808Z,82.10
2023-01-06T21:45:58.435Z,81.77
2023-01-06T21:48:31.288Z,81.56
2023-01-06T21:51:03.641Z,81.36
2023-01-06T21:53:36.285Z,81.01
2023-01-06T21:56:09.366Z,80.94
2023-01-06T21:58:42.637Z,80.50
2023-01-06T22:01:15.277Z,79.39
2023-01-06T22:03:49.028Z,79.23
2023-01-06T22:06:21.848Z,78.84
2023-01-06T22:08:54.899Z,79.04
2023-01-06T22:14:12.355Z,78.55
2023-01-06T22:16:45.018Z,77.86
2023-01-06T22:19:18.428Z,77.48
2023-01-06T22:21:51.304Z,77.28
2023-01-06T22:24:24.851Z,77.57
2023-01-06T22:26:57.491Z,77.59
2023-01-06T22:29:30.229Z,76.69
2023-01-06T22:32:04.698Z,76.27
2023-01-06T22:37:20.615Z,76.00
2023-01-06T22:39:53.567Z,76.19
2023-01-06T22:42:26.141Z,76.14
2023-01-06T22:44:58.937Z,76.42
2023-01-06T22:47:33.649Z,76.26
2023-01-06T22:50:07.183Z,76.42
2023-01-06T22:52:40.083Z,76.33
2023-01-06T22:55:13.000Z,75.80
2023-01-06T22:57:45.838Z,75.47
2023-01-06T23:00:19.498Z,76.10
2023-01-06T23:02:52.138Z,77.27
2023-01-06T23:05:24.845Z,78.39
2023-01-06T23:07:57.851Z,77.54
2023-01-06T23:10:30.645Z,77.63
2023-01-06T23:13:03.375Z,78.15
2023-01-06T23:15:36.132Z,77.66
2023-01-06T23:18:08.630Z,77.44
2023-01-06T23:20:42.025Z,78.01
2023-01-06T23:23:14.425Z,78.51
2023-01-06T23:25:47.153Z,77.89
2023-01-06T23:28:19.595Z,77.65
2023-01-06T23:30:51.993Z,77.36
2023-01-06T23:33:24.631Z,78.03
2023-01-06T23:35:58.863Z,78.47
2023-01-06T23:38:32.214Z,78.07
2023-01-06T23:41:10.705Z,78.01
2023-01-06T23:43:43.894Z,78.17
2023-01-06T23:46:19.141Z,77.80
2023-01-06T23:48:51.843Z,77.41
2023-01-06T23:51:25.384Z,77.80
2023-01-06T23:53:57.962Z,77.29
2023-01-06T23:56:32.496Z,77.34
2023-01-06T23:59:05.391Z,77.03
